Архив погоды в Оханске

Метеограмма Оханск
Воскресенье, 22 Июля
Время местн. Темп Ветер Видим Явления Облачность нижн/средн/верх Атм. давл. Влжн Точка росы ВНГО R Сост. почвы Tg s
Напр Скр Прв ур.ст ур.м изм
08:00 +15.8° В 3 - 50 км - ясно 753 767 +0.8 59% +7.8° более 2.5 км 0 Сухая (без трещин) - -
05:00 +13.4° В 3 - 50 км - ясно 752 767 +0.6 66% +7.1° более 2.5 км - - - -
02:00 +15.2° В 2 - 50 км - ясно 751 766 +0.7 61% +7.8° более 2.5 км - - - -
Суббота, 21 Июля
Время местн. Темп Ветер Видим Явления Облачность нижн/средн/верх Атм. давл. Влжн Точка росы ВНГО R Сост. почвы Tg s
Напр Скр Прв ур.ст ур.м изм
23:00 +18° В 3 - 50 км - ясно 751 765 +0.7 52% +8° более 2.5 км - - - -
20:00 +22.2° В 3 - 50 км - переменная облачность 750 764 -0.2 37% +6.9° - 0 - - -
17:00 +23.2° С-В 5 - 50 км - переменная облачность 750 764 -0.2 36% +7.3° 1 км - - - -
14:00 +23.1° В 4 - 50 км - переменная облачность 750 764 -0.3 38% +8.2° 1 км - - - -
11:00 +21.3° В 3 - 50 км - переменная облачность 751 765 0 48% +10° 1 км - - - -
08:00 +16.9° С-В 3 - 50 км - ясно 751 765 +0.8 66% +10.5° более 2.5 км 0 Сухая (без трещин) - -
05:00 +15.1° С-В 3 - 50 км - ясно 750 764 0 70% +9.7° более 2.5 км - - - -
02:00 +16.4° В,С-В 3 - 50 км - переменная облачность 750 764 +0.5 66% +10.1° - - - - -
Пятница, 20 Июля
Время местн. Темп Ветер Видим Явления Облачность нижн/средн/верх Атм. давл. Влжн Точка росы ВНГО R Сост. почвы Tg s
Напр Скр Прв ур.ст ур.м изм
23:00 +19.5° В 4 - 50 км - переменная облачность 749 764 +1.4 56% +10.4° - - - - -
20:00 +23.5° В,С-В 4 - 50 км - переменная облачность 748 762 -0.2 46% +11.1° - 0 - - -
17:00 +23.9° В 3 - 50 км небо без изменений {ливневые осадки} облачно с прояснениями 748 762 +0.3 52% +13.4° 1.5 км - - - -
14:00 +23.2° В 4 - 50 км - облачно с прояснениями 748 762 +0.4 57% +14.3° 1 км - - - -
11:00 +21.5° С-В 3 - 50 км - переменная облачность 747 762 +0.2 69% +15.6° 2.5 км - - - -
08:00 +17.8° С-В 4 - 4 км дымка преимущественно облачно 747 762 +0.5 84% +15° - 0 Влажная (без луж) - -
05:00 +16.7° С,С-В 3 - 20 км - облачно 747 761 +0.4 89% +14.9° - - - - -
02:00 +17.3° С,С-В 3 - 50 км - переменная облачность 746 761 +0.2 86% +14.9° - - - - -
Четверг, 19 Июля
Время местн. Темп Ветер Видим Явления Облачность нижн/средн/верх Атм. давл. Влжн Точка росы ВНГО R Сост. почвы Tg s
Напр Скр Прв ур.ст ур.м изм
23:00 +18.4° С,С-В 2 - 50 км - переменная облачность 746 761 +0.8 86% +16.1° - - - - -
20:00 +21.1° С-В 3 - 50 км - облачно с прояснениями 745 760 +0.5 77% +17° 1 км 0.5 - - -
17:00 +22.2° В,С-В 2 - 50 км ливневый дождь облачно с прояснениями 745 759 +0.2 73% +17.1° 1 км - - - -
14:00 +24.9° С-В 3 - 50 км небо без изменений {ливневые осадки} облачно с прояснениями 745 759 -0.4 61% +16.8° 1.5 км - - - -
11:00 +20.2° В,С-В 3 - 50 км небо без изменений {ливневые осадки} преимущественно облачно 745 759 +0.5 79% +16.4° 1 км - - - -
08:00 +17.6° В 3 - 20 км слабый ливневый дождь облачно 745 759 +0.9 85% +15.1° 1 км 0.3 Влажная (без луж) - -
05:00 +17.7° В 2 - 20 км слабый ливневый дождь облачно 744 758 +0.5 85% +15.2° 1 км - - - -